sensor_id;sensor_type;location;lat;lon;timestamp;P1;durP1;ratioP1;P2;durP2;ratioP2
37609;SDS011;23457;51.966;8.230;2023-04-24T08:24:15;5.82;;;4.00;;
37609;SDS011;23457;51.966;8.230;2023-04-24T08:26:42;5.82;;;4.07;;
37609;SDS011;23457;51.966;8.230;2023-04-24T08:29:08;5.60;;;4.50;;
37609;SDS011;23457;51.966;8.230;2023-04-24T08:31:35;4.85;;;3.70;;
37609;SDS011;23457;51.966;8.230;2023-04-24T08:34:02;5.13;;;3.22;;
37609;SDS011;23457;51.966;8.230;2023-04-24T08:36:29;4.00;;;3.60;;
37609;SDS011;23457;51.966;8.230;2023-04-24T08:39:11;3.50;;;3.20;;
37609;SDS011;23457;51.966;8.230;2023-04-24T08:41:38;4.20;;;3.70;;
37609;SDS011;23457;51.966;8.230;2023-04-24T08:44:09;4.35;;;3.28;;
37609;SDS011;23457;51.966;8.230;2023-04-24T08:46:36;5.43;;;3.22;;
37609;SDS011;23457;51.966;8.230;2023-04-24T08:49:03;4.45;;;3.10;;
37609;SDS011;23457;51.966;8.230;2023-04-24T08:51:31;4.63;;;3.15;;
37609;SDS011;23457;51.966;8.230;2023-04-24T08:53:57;4.80;;;3.25;;
37609;SDS011;23457;51.966;8.230;2023-04-24T08:56:24;3.63;;;3.05;;
37609;SDS011;23457;51.966;8.230;2023-04-24T08:58:51;3.25;;;2.70;;
37609;SDS011;23457;51.966;8.230;2023-04-24T09:01:19;2.92;;;2.55;;
37609;SDS011;23457;51.966;8.230;2023-04-24T09:03:48;3.20;;;2.72;;
37609;SDS011;23457;51.966;8.230;2023-04-24T09:08:45;3.67;;;2.30;;
37609;SDS011;23457;51.966;8.230;2023-04-24T09:11:16;5.10;;;2.38;;
37609;SDS011;23457;51.966;8.230;2023-04-24T09:13:43;2.97;;;2.00;;
37609;SDS011;23457;51.966;8.230;2023-04-24T09:16:10;2.38;;;2.17;;
37609;SDS011;23457;51.966;8.230;2023-04-24T09:18:37;4.10;;;2.40;;
37609;SDS011;23457;51.966;8.230;2023-04-24T09:21:06;4.10;;;2.47;;
37609;SDS011;23457;51.966;8.230;2023-04-24T09:23:34;5.93;;;2.55;;
37609;SDS011;23457;51.966;8.230;2023-04-24T09:26:01;3.50;;;3.00;;
37609;SDS011;23457;51.966;8.230;2023-04-24T09:31:02;4.72;;;3.08;;
37609;SDS011;23457;51.966;8.230;2023-04-24T09:33:35;4.53;;;2.88;;
37609;SDS011;23457;51.966;8.230;2023-04-24T09:36:02;3.45;;;3.10;;
37609;SDS011;23457;51.966;8.230;2023-04-24T09:38:33;4.82;;;3.13;;
37609;SDS011;23457;51.966;8.230;2023-04-24T09:41:07;3.72;;;3.05;;
37609;SDS011;23457;51.966;8.230;2023-04-24T09:43:35;3.97;;;3.20;;
37609;SDS011;23457;51.966;8.230;2023-04-24T09:46:06;4.15;;;2.85;;
37609;SDS011;23457;51.966;8.230;2023-04-24T09:48:35;5.68;;;2.80;;
37609;SDS011;23457;51.966;8.230;2023-04-24T09:51:04;3.50;;;2.80;;
37609;SDS011;23457;51.966;8.230;2023-04-24T09:53:37;4.32;;;2.88;;
37609;SDS011;23457;51.966;8.230;2023-04-24T09:56:09;3.85;;;2.88;;
37609;SDS011;23457;51.966;8.230;2023-04-24T09:58:36;2.45;;;2.22;;
37609;SDS011;23457;51.966;8.230;2023-04-24T10:01:03;2.75;;;2.10;;
37609;SDS011;23457;51.966;8.230;2023-04-24T10:03:31;1.60;;;1.50;;
37609;SDS011;23457;51.966;8.230;2023-04-24T10:05:59;1.70;;;1.60;;
37609;SDS011;23457;51.966;8.230;2023-04-24T10:08:33;2.22;;;2.00;;
37609;SDS011;23457;51.966;8.230;2023-04-24T10:11:00;2.03;;;1.83;;
37609;SDS011;23457;51.966;8.230;2023-04-24T10:13:28;2.53;;;1.90;;
37609;SDS011;23457;51.966;8.230;2023-04-24T10:15:55;3.20;;;2.38;;
37609;SDS011;23457;51.966;8.230;2023-04-24T10:18:22;2.45;;;1.80;;
37609;SDS011;23457;51.966;8.230;2023-04-24T10:20:51;2.08;;;1.88;;
37609;SDS011;23457;51.966;8.230;2023-04-24T10:23:21;2.25;;;1.92;;
37609;SDS011;23457;51.966;8.230;2023-04-24T10:25:49;3.45;;;1.80;;
37609;SDS011;23457;51.966;8.230;2023-04-24T10:28:17;2.17;;;1.65;;
37609;SDS011;23457;51.966;8.230;2023-04-24T10:30:45;3.97;;;2.40;;
37609;SDS011;23457;51.966;8.230;2023-04-24T10:33:11;3.45;;;2.83;;
37609;SDS011;23457;51.966;8.230;2023-04-24T10:35:45;8.55;;;3.50;;
37609;SDS011;23457;51.966;8.230;2023-04-24T10:38:17;4.00;;;3.60;;
37609;SDS011;23457;51.966;8.230;2023-04-24T10:40:51;6.13;;;4.50;;
37609;SDS011;23457;51.966;8.230;2023-04-24T10:43:17;6.95;;;5.45;;
37609;SDS011;23457;51.966;8.230;2023-04-24T10:46:04;10.20;;;6.20;;
37609;SDS011;23457;51.966;8.230;2023-04-24T10:48:33;11.10;;;6.40;;
37609;SDS011;23457;51.966;8.230;2023-04-24T10:51:00;10.90;;;6.95;;
37609;SDS011;23457;51.966;8.230;2023-04-24T10:53:28;8.32;;;6.05;;
37609;SDS011;23457;51.966;8.230;2023-04-24T10:59:11;8.50;;;5.43;;
37609;SDS011;23457;51.966;8.230;2023-04-24T11:01:23;6.10;;;5.50;;
37609;SDS011;23457;51.966;8.230;2023-04-24T11:04:01;5.78;;;4.88;;
37609;SDS011;23457;51.966;8.230;2023-04-24T11:09:02;6.13;;;4.88;;
37609;SDS011;23457;51.966;8.230;2023-04-24T11:11:30;8.45;;;4.80;;
37609;SDS011;23457;51.966;8.230;2023-04-24T11:16:30;4.55;;;4.15;;
37609;SDS011;23457;51.966;8.230;2023-04-24T11:19:24;4.15;;;3.85;;
37609;SDS011;23457;51.966;8.230;2023-04-24T11:21:59;4.70;;;4.30;;
37609;SDS011;23457;51.966;8.230;2023-04-24T11:24:32;5.32;;;4.25;;
37609;SDS011;23457;51.966;8.230;2023-04-24T11:27:20;5.45;;;4.95;;
37609;SDS011;23457;51.966;8.230;2023-04-24T11:32:28;7.10;;;4.80;;
37609;SDS011;23457;51.966;8.230;2023-04-24T11:37:41;5.78;;;5.28;;
37609;SDS011;23457;51.966;8.230;2023-04-24T11:40:21;5.50;;;4.68;;
37609;SDS011;23457;51.966;8.230;2023-04-24T11:42:54;6.00;;;4.13;;
37609;SDS011;23457;51.966;8.230;2023-04-24T11:45:28;3.05;;;2.75;;
37609;SDS011;23457;51.966;8.230;2023-04-24T11:47:56;4.60;;;2.92;;
37609;SDS011;23457;51.966;8.230;2023-04-24T11:50:24;3.88;;;3.03;;
37609;SDS011;23457;51.966;8.230;2023-04-24T11:57:48;4.65;;;2.45;;
37609;SDS011;23457;51.966;8.230;2023-04-24T12:00:16;5.47;;;2.85;;
37609;SDS011;23457;51.966;8.230;2023-04-24T12:02:45;4.28;;;2.90;;
37609;SDS011;23457;51.966;8.230;2023-04-24T12:05:19;6.82;;;3.20;;
37609;SDS011;23457;51.966;8.230;2023-04-24T12:07:48;6.32;;;3.40;;
37609;SDS011;23457;51.966;8.230;2023-04-24T12:10:19;7.68;;;3.65;;
37609;SDS011;23457;51.966;8.230;2023-04-24T12:12:50;6.93;;;3.90;;
37609;SDS011;23457;51.966;8.230;2023-04-24T12:15:20;10.13;;;5.28;;
37609;SDS011;23457;51.966;8.230;2023-04-24T12:17:48;6.65;;;4.20;;
37609;SDS011;23457;51.966;8.230;2023-04-24T12:20:17;6.75;;;4.47;;
37609;SDS011;23457;51.966;8.230;2023-04-24T12:22:52;7.15;;;4.60;;
37609;SDS011;23457;51.966;8.230;2023-04-24T12:25:22;8.85;;;4.57;;
37609;SDS011;23457;51.966;8.230;2023-04-24T12:27:53;5.35;;;4.47;;
37609;SDS011;23457;51.966;8.230;2023-04-24T12:30:29;12.73;;;5.20;;
37609;SDS011;23457;51.966;8.230;2023-04-24T12:32:57;7.68;;;5.30;;
37609;SDS011;23457;51.966;8.230;2023-04-24T12:35:27;11.80;;;5.50;;
37609;SDS011;23457;51.966;8.230;2023-04-24T12:37:55;7.72;;;5.03;;
37609;SDS011;23457;51.966;8.230;2023-04-24T12:40:22;10.45;;;5.72;;
37609;SDS011;23457;51.966;8.230;2023-04-24T12:42:51;11.45;;;5.80;;
37609;SDS011;23457;51.966;8.230;2023-04-24T12:45:18;10.88;;;6.32;;
37609;SDS011;23457;51.966;8.230;2023-04-24T12:47:45;13.48;;;6.47;;
37609;SDS011;23457;51.966;8.230;2023-04-24T12:50:13;14.45;;;5.70;;
37609;SDS011;23457;51.966;8.230;2023-04-24T12:52:41;7.90;;;5.25;;
37609;SDS011;23457;51.966;8.230;2023-04-24T12:55:08;9.15;;;4.90;;
37609;SDS011;23457;51.966;8.230;2023-04-24T12:57:38;13.32;;;4.72;;
37609;SDS011;23457;51.966;8.230;2023-04-24T13:00:06;12.10;;;5.18;;
37609;SDS011;23457;51.966;8.230;2023-04-24T13:02:34;9.93;;;4.47;;
37609;SDS011;23457;51.966;8.230;2023-04-24T13:05:01;10.77;;;5.47;;
37609;SDS011;23457;51.966;8.230;2023-04-24T13:07:28;10.82;;;5.28;;
37609;SDS011;23457;51.966;8.230;2023-04-24T13:09:55;14.30;;;5.93;;
37609;SDS011;23457;51.966;8.230;2023-04-24T13:12:23;13.05;;;5.40;;
37609;SDS011;23457;51.966;8.230;2023-04-24T13:14:53;15.68;;;6.25;;
37609;SDS011;23457;51.966;8.230;2023-04-24T13:17:20;12.55;;;5.78;;
37609;SDS011;23457;51.966;8.230;2023-04-24T13:19:49;12.18;;;6.95;;
37609;SDS011;23457;51.966;8.230;2023-04-24T13:22:17;14.35;;;6.68;;
37609;SDS011;23457;51.966;8.230;2023-04-24T13:24:47;11.35;;;6.88;;
37609;SDS011;23457;51.966;8.230;2023-04-24T13:27:15;17.55;;;7.03;;
37609;SDS011;23457;51.966;8.230;2023-04-24T13:29:42;18.42;;;8.02;;
37609;SDS011;23457;51.966;8.230;2023-04-24T13:32:09;18.33;;;8.02;;
37609;SDS011;23457;51.966;8.230;2023-04-24T13:34:36;12.60;;;6.72;;
37609;SDS011;23457;51.966;8.230;2023-04-24T13:37:03;17.92;;;7.00;;
37609;SDS011;23457;51.966;8.230;2023-04-24T13:39:30;16.88;;;7.18;;
37609;SDS011;23457;51.966;8.230;2023-04-24T13:41:57;14.88;;;7.20;;
37609;SDS011;23457;51.966;8.230;2023-04-24T13:44:24;21.55;;;7.63;;
37609;SDS011;23457;51.966;8.230;2023-04-24T13:46:52;17.83;;;7.20;;
37609;SDS011;23457;51.966;8.230;2023-04-24T13:49:20;19.83;;;7.32;;
37609;SDS011;23457;51.966;8.230;2023-04-24T13:51:48;18.38;;;7.25;;
37609;SDS011;23457;51.966;8.230;2023-04-24T13:54:14;12.80;;;7.30;;
37609;SDS011;23457;51.966;8.230;2023-04-24T13:56:41;21.38;;;7.53;;
37609;SDS011;23457;51.966;8.230;2023-04-24T13:59:08;14.48;;;6.60;;
37609;SDS011;23457;51.966;8.230;2023-04-24T14:01:35;12.43;;;5.82;;
37609;SDS011;23457;51.966;8.230;2023-04-24T14:04:02;12.00;;;6.35;;
37609;SDS011;23457;51.966;8.230;2023-04-24T14:06:29;19.55;;;7.07;;
37609;SDS011;23457;51.966;8.230;2023-04-24T14:08:55;16.02;;;6.55;;
37609;SDS011;23457;51.966;8.230;2023-04-24T14:11:22;16.17;;;7.22;;
37609;SDS011;23457;51.966;8.230;2023-04-24T14:13:49;16.88;;;6.43;;
37609;SDS011;23457;51.966;8.230;2023-04-24T14:16:16;16.38;;;6.45;;
37609;SDS011;23457;51.966;8.230;2023-04-24T14:18:43;15.10;;;6.32;;
37609;SDS011;23457;51.966;8.230;2023-04-24T14:21:09;12.80;;;5.80;;
37609;SDS011;23457;51.966;8.230;2023-04-24T14:23:36;24.10;;;8.23;;
37609;SDS011;23457;51.966;8.230;2023-04-24T14:26:02;15.32;;;6.38;;
37609;SDS011;23457;51.966;8.230;2023-04-24T14:28:29;12.48;;;6.18;;
37609;SDS011;23457;51.966;8.230;2023-04-24T14:30:56;19.15;;;6.15;;
37609;SDS011;23457;51.966;8.230;2023-04-24T14:33:22;17.95;;;5.97;;
37609;SDS011;23457;51.966;8.230;2023-04-24T14:35:49;11.45;;;5.30;;
37609;SDS011;23457;51.966;8.230;2023-04-24T14:38:15;11.98;;;5.57;;
37609;SDS011;23457;51.966;8.230;2023-04-24T14:40:42;7.60;;;4.28;;
37609;SDS011;23457;51.966;8.230;2023-04-24T14:43:12;8.85;;;4.03;;
37609;SDS011;23457;51.966;8.230;2023-04-24T14:45:38;10.50;;;4.10;;
37609;SDS011;23457;51.966;8.230;2023-04-24T14:48:07;9.98;;;4.30;;
37609;SDS011;23457;51.966;8.230;2023-04-24T14:50:35;11.65;;;4.05;;
37609;SDS011;23457;51.966;8.230;2023-04-24T14:53:01;8.75;;;3.55;;
37609;SDS011;23457;51.966;8.230;2023-04-24T14:55:28;8.73;;;3.42;;
37609;SDS011;23457;51.966;8.230;2023-04-24T14:57:55;10.30;;;3.38;;
37609;SDS011;23457;51.966;8.230;2023-04-24T15:00:22;6.07;;;3.75;;
37609;SDS011;23457;51.966;8.230;2023-04-24T15:02:50;9.05;;;3.65;;
37609;SDS011;23457;51.966;8.230;2023-04-24T15:05:17;5.72;;;2.75;;
37609;SDS011;23457;51.966;8.230;2023-04-24T15:07:44;10.77;;;3.00;;
37609;SDS011;23457;51.966;8.230;2023-04-24T15:10:11;6.55;;;2.05;;
37609;SDS011;23457;51.966;8.230;2023-04-24T15:12:38;5.30;;;2.65;;
37609;SDS011;23457;51.966;8.230;2023-04-24T15:15:05;3.97;;;2.50;;
37609;SDS011;23457;51.966;8.230;2023-04-24T15:17:32;6.18;;;2.20;;
37609;SDS011;23457;51.966;8.230;2023-04-24T15:19:59;3.83;;;2.08;;
37609;SDS011;23457;51.966;8.230;2023-04-24T15:22:27;4.35;;;2.22;;
37609;SDS011;23457;51.966;8.230;2023-04-24T15:24:53;5.75;;;2.45;;
37609;SDS011;23457;51.966;8.230;2023-04-24T15:27:20;3.05;;;1.95;;
37609;SDS011;23457;51.966;8.230;2023-04-24T15:29:47;9.50;;;2.30;;
37609;SDS011;23457;51.966;8.230;2023-04-24T15:32:15;4.78;;;2.47;;
37609;SDS011;23457;51.966;8.230;2023-04-24T15:34:42;4.47;;;2.00;;
37609;SDS011;23457;51.966;8.230;2023-04-24T15:37:09;4.53;;;2.20;;
37609;SDS011;23457;51.966;8.230;2023-04-24T15:39:36;5.72;;;2.50;;
37609;SDS011;23457;51.966;8.230;2023-04-24T15:42:03;4.55;;;2.03;;
37609;SDS011;23457;51.966;8.230;2023-04-24T15:44:30;4.63;;;2.38;;
37609;SDS011;23457;51.966;8.230;2023-04-24T15:46:56;5.93;;;2.88;;
37609;SDS011;23457;51.966;8.230;2023-04-24T15:49:26;8.55;;;2.83;;
37609;SDS011;23457;51.966;8.230;2023-04-24T15:51:53;4.32;;;2.30;;
37609;SDS011;23457;51.966;8.230;2023-04-24T15:54:19;5.18;;;2.05;;
37609;SDS011;23457;51.966;8.230;2023-04-24T15:56:46;4.45;;;2.25;;
37609;SDS011;23457;51.966;8.230;2023-04-24T15:59:16;5.63;;;1.90;;
37609;SDS011;23457;51.966;8.230;2023-04-24T16:01:44;6.07;;;2.42;;
37609;SDS011;23457;51.966;8.230;2023-04-24T16:04:11;4.78;;;2.20;;
37609;SDS011;23457;51.966;8.230;2023-04-24T16:06:38;4.97;;;2.35;;
37609;SDS011;23457;51.966;8.230;2023-04-24T16:09:04;4.38;;;2.25;;
37609;SDS011;23457;51.966;8.230;2023-04-24T16:11:32;4.22;;;1.88;;
37609;SDS011;23457;51.966;8.230;2023-04-24T16:13:59;7.72;;;2.20;;
37609;SDS011;23457;51.966;8.230;2023-04-24T16:16:26;3.63;;;2.00;;
37609;SDS011;23457;51.966;8.230;2023-04-24T16:18:53;4.82;;;2.08;;
37609;SDS011;23457;51.966;8.230;2023-04-24T16:21:19;4.15;;;1.90;;
37609;SDS011;23457;51.966;8.230;2023-04-24T16:23:46;5.32;;;2.05;;
37609;SDS011;23457;51.966;8.230;2023-04-24T16:26:13;6.18;;;2.40;;
37609;SDS011;23457;51.966;8.230;2023-04-24T16:28:40;7.18;;;2.20;;
37609;SDS011;23457;51.966;8.230;2023-04-24T16:31:08;4.93;;;2.10;;
37609;SDS011;23457;51.966;8.230;2023-04-24T16:33:35;4.85;;;2.05;;
37609;SDS011;23457;51.966;8.230;2023-04-24T16:36:02;3.72;;;2.00;;
37609;SDS011;23457;51.966;8.230;2023-04-24T16:38:31;5.68;;;2.25;;
37609;SDS011;23457;51.966;8.230;2023-04-24T16:40:58;5.43;;;2.10;;
37609;SDS011;23457;51.966;8.230;2023-04-24T16:43:25;3.72;;;1.80;;
37609;SDS011;23457;51.966;8.230;2023-04-24T16:45:52;4.28;;;1.70;;
37609;SDS011;23457;51.966;8.230;2023-04-24T16:48:19;4.63;;;1.63;;
37609;SDS011;23457;51.966;8.230;2023-04-24T16:50:46;6.50;;;2.05;;
37609;SDS011;23457;51.966;8.230;2023-04-24T16:53:12;5.78;;;1.73;;
37609;SDS011;23457;51.966;8.230;2023-04-24T16:55:39;6.68;;;1.73;;
37609;SDS011;23457;51.966;8.230;2023-04-24T16:58:06;6.43;;;1.92;;
37609;SDS011;23457;51.966;8.230;2023-04-24T17:00:32;7.45;;;1.73;;
37609;SDS011;23457;51.966;8.230;2023-04-24T17:02:59;6.10;;;1.70;;
37609;SDS011;23457;51.966;8.230;2023-04-24T17:05:26;7.05;;;1.52;;
37609;SDS011;23457;51.966;8.230;2023-04-24T17:07:53;7.45;;;1.83;;
37609;SDS011;23457;51.966;8.230;2023-04-24T17:10:20;8.55;;;1.67;;
37609;SDS011;23457;51.966;8.230;2023-04-24T17:12:47;6.53;;;1.60;;
37609;SDS011;23457;51.966;8.230;2023-04-24T17:15:13;7.75;;;2.42;;
37609;SDS011;23457;51.966;8.230;2023-04-24T17:17:40;6.15;;;1.63;;
37609;SDS011;23457;51.966;8.230;2023-04-24T17:20:09;7.63;;;2.53;;
37609;SDS011;23457;51.966;8.230;2023-04-24T17:22:47;4.53;;;1.83;;
37609;SDS011;23457;51.966;8.230;2023-04-24T17:25:14;6.70;;;2.15;;
37609;SDS011;23457;51.966;8.230;2023-04-24T17:27:41;9.85;;;2.28;;
37609;SDS011;23457;51.966;8.230;2023-04-24T17:30:07;10.02;;;3.40;;
37609;SDS011;23457;51.966;8.230;2023-04-24T17:32:34;7.65;;;1.95;;
37609;SDS011;23457;51.966;8.230;2023-04-24T17:35:01;8.40;;;2.17;;
37609;SDS011;23457;51.966;8.230;2023-04-24T17:37:28;6.88;;;1.92;;
37609;SDS011;23457;51.966;8.230;2023-04-24T17:39:55;6.57;;;2.17;;
37609;SDS011;23457;51.966;8.230;2023-04-24T17:42:22;9.93;;;2.47;;
37609;SDS011;23457;51.966;8.230;2023-04-24T17:44:48;10.43;;;2.45;;
37609;SDS011;23457;51.966;8.230;2023-04-24T17:47:15;5.80;;;2.50;;
37609;SDS011;23457;51.966;8.230;2023-04-24T17:49:42;11.50;;;2.83;;
37609;SDS011;23457;51.966;8.230;2023-04-24T17:52:08;5.95;;;1.98;;
37609;SDS011;23457;51.966;8.230;2023-04-24T17:54:36;9.85;;;2.35;;
37609;SDS011;23457;51.966;8.230;2023-04-24T17:57:03;11.30;;;2.55;;
37609;SDS011;23457;51.966;8.230;2023-04-24T17:59:30;7.55;;;2.53;;
37609;SDS011;23457;51.966;8.230;2023-04-24T18:01:56;7.28;;;2.45;;
37609;SDS011;23457;51.966;8.230;2023-04-24T18:04:23;11.43;;;2.65;;
37609;SDS011;23457;51.966;8.230;2023-04-24T18:06:51;12.70;;;2.97;;
37609;SDS011;23457;51.966;8.230;2023-04-24T18:09:18;10.52;;;2.50;;
37609;SDS011;23457;51.966;8.230;2023-04-24T18:11:46;9.00;;;2.05;;
37609;SDS011;23457;51.966;8.230;2023-04-24T18:14:14;8.85;;;2.47;;
37609;SDS011;23457;51.966;8.230;2023-04-24T18:16:41;11.15;;;2.17;;
37609;SDS011;23457;51.966;8.230;2023-04-24T18:19:08;9.50;;;2.20;;
37609;SDS011;23457;51.966;8.230;2023-04-24T18:21:35;8.82;;;2.55;;
37609;SDS011;23457;51.966;8.230;2023-04-24T18:24:01;6.80;;;2.40;;
37609;SDS011;23457;51.966;8.230;2023-04-24T18:26:28;11.63;;;3.00;;
37609;SDS011;23457;51.966;8.230;2023-04-24T18:28:55;8.90;;;3.05;;
37609;SDS011;23457;51.966;8.230;2023-04-24T18:31:22;8.40;;;3.40;;
37609;SDS011;23457;51.966;8.230;2023-04-24T18:33:49;7.60;;;2.95;;
37609;SDS011;23457;51.966;8.230;2023-04-24T18:36:15;12.23;;;3.42;;
37609;SDS011;23457;51.966;8.230;2023-04-24T18:38:42;11.68;;;3.63;;
37609;SDS011;23457;51.966;8.230;2023-04-24T18:41:09;9.63;;;3.00;;
37609;SDS011;23457;51.966;8.230;2023-04-24T18:43:36;8.50;;;2.95;;
37609;SDS011;23457;51.966;8.230;2023-04-24T18:46:02;11.77;;;3.70;;
37609;SDS011;23457;51.966;8.230;2023-04-24T18:48:29;11.73;;;3.35;;
37609;SDS011;23457;51.966;8.230;2023-04-24T18:50:56;11.15;;;3.20;;
37609;SDS011;23457;51.966;8.230;2023-04-24T18:53:23;11.95;;;4.40;;
37609;SDS011;23457;51.966;8.230;2023-04-24T18:55:49;8.52;;;4.30;;
37609;SDS011;23457;51.966;8.230;2023-04-24T18:58:16;8.73;;;4.05;;
37609;SDS011;23457;51.966;8.230;2023-04-24T19:00:43;11.43;;;3.63;;
37609;SDS011;23457;51.966;8.230;2023-04-24T19:03:10;11.98;;;4.15;;
37609;SDS011;23457;51.966;8.230;2023-04-24T19:05:37;10.90;;;3.63;;
37609;SDS011;23457;51.966;8.230;2023-04-24T19:08:03;9.93;;;3.45;;
37609;SDS011;23457;51.966;8.230;2023-04-24T19:10:30;5.93;;;3.22;;
37609;SDS011;23457;51.966;8.230;2023-04-24T19:12:59;15.45;;;3.50;;
37609;SDS011;23457;51.966;8.230;2023-04-24T19:15:27;14.02;;;3.85;;
37609;SDS011;23457;51.966;8.230;2023-04-24T19:17:55;14.60;;;4.35;;
37609;SDS011;23457;51.966;8.230;2023-04-24T19:20:22;7.93;;;3.55;;
37609;SDS011;23457;51.966;8.230;2023-04-24T19:22:48;9.57;;;3.75;;
37609;SDS011;23457;51.966;8.230;2023-04-24T19:25:16;9.82;;;4.13;;
37609;SDS011;23457;51.966;8.230;2023-04-24T19:27:42;14.15;;;3.90;;
37609;SDS011;23457;51.966;8.230;2023-04-24T19:30:09;9.05;;;3.83;;
37609;SDS011;23457;51.966;8.230;2023-04-24T19:32:36;8.80;;;3.90;;
37609;SDS011;23457;51.966;8.230;2023-04-24T19:35:03;10.95;;;3.63;;
37609;SDS011;23457;51.966;8.230;2023-04-24T19:37:30;14.00;;;4.03;;
37609;SDS011;23457;51.966;8.230;2023-04-24T19:39:57;10.50;;;3.70;;
37609;SDS011;23457;51.966;8.230;2023-04-24T19:42:24;9.20;;;3.72;;
37609;SDS011;23457;51.966;8.230;2023-04-24T19:45:09;12.27;;;4.63;;
37609;SDS011;23457;51.966;8.230;2023-04-24T19:47:36;11.47;;;4.23;;
37609;SDS011;23457;51.966;8.230;2023-04-24T19:50:04;12.02;;;4.25;;
37609;SDS011;23457;51.966;8.230;2023-04-24T19:52:31;14.60;;;4.45;;
37609;SDS011;23457;51.966;8.230;2023-04-24T19:54:58;12.65;;;4.35;;
37609;SDS011;23457;51.966;8.230;2023-04-24T19:57:24;15.40;;;4.45;;
37609;SDS011;23457;51.966;8.230;2023-04-24T19:59:51;21.58;;;4.70;;
37609;SDS011;23457;51.966;8.230;2023-04-24T20:02:17;9.70;;;4.25;;
37609;SDS011;23457;51.966;8.230;2023-04-24T20:04:44;13.32;;;4.22;;
37609;SDS011;23457;51.966;8.230;2023-04-24T20:07:11;11.85;;;4.13;;
37609;SDS011;23457;51.966;8.230;2023-04-24T20:09:38;9.30;;;4.60;;
37609;SDS011;23457;51.966;8.230;2023-04-24T20:12:04;14.85;;;4.90;;
37609;SDS011;23457;51.966;8.230;2023-04-24T20:14:31;9.90;;;4.25;;
37609;SDS011;23457;51.966;8.230;2023-04-24T20:16:58;11.13;;;4.40;;
37609;SDS011;23457;51.966;8.230;2023-04-24T20:19:24;12.60;;;4.90;;
37609;SDS011;23457;51.966;8.230;2023-04-24T20:21:51;14.57;;;4.80;;
37609;SDS011;23457;51.966;8.230;2023-04-24T20:24:19;14.73;;;4.97;;
37609;SDS011;23457;51.966;8.230;2023-04-24T20:26:45;11.10;;;4.00;;
37609;SDS011;23457;51.966;8.230;2023-04-24T20:29:12;12.70;;;4.47;;
37609;SDS011;23457;51.966;8.230;2023-04-24T20:31:39;15.70;;;4.63;;
37609;SDS011;23457;51.966;8.230;2023-04-24T20:34:07;10.52;;;4.60;;
37609;SDS011;23457;51.966;8.230;2023-04-24T20:36:33;15.15;;;5.03;;
37609;SDS011;23457;51.966;8.230;2023-04-24T20:39:00;11.50;;;4.55;;
37609;SDS011;23457;51.966;8.230;2023-04-24T20:41:27;12.65;;;4.47;;
37609;SDS011;23457;51.966;8.230;2023-04-24T20:43:55;14.10;;;4.57;;
37609;SDS011;23457;51.966;8.230;2023-04-24T20:46:22;11.35;;;4.32;;
37609;SDS011;23457;51.966;8.230;2023-04-24T20:48:48;12.93;;;4.63;;
37609;SDS011;23457;51.966;8.230;2023-04-24T20:51:16;17.85;;;5.20;;
37609;SDS011;23457;51.966;8.230;2023-04-24T20:53:44;15.52;;;4.70;;
37609;SDS011;23457;51.966;8.230;2023-04-24T20:56:11;14.30;;;4.53;;
37609;SDS011;23457;51.966;8.230;2023-04-24T20:58:38;14.32;;;5.15;;
37609;SDS011;23457;51.966;8.230;2023-04-24T21:01:05;17.23;;;5.63;;
37609;SDS011;23457;51.966;8.230;2023-04-24T21:03:31;14.98;;;5.22;;
37609;SDS011;23457;51.966;8.230;2023-04-24T21:05:59;14.93;;;5.30;;
37609;SDS011;23457;51.966;8.230;2023-04-24T21:08:25;13.27;;;5.07;;
37609;SDS011;23457;51.966;8.230;2023-04-24T21:10:52;17.60;;;5.60;;
37609;SDS011;23457;51.966;8.230;2023-04-24T21:13:18;18.88;;;5.88;;
37609;SDS011;23457;51.966;8.230;2023-04-24T21:15:45;15.77;;;5.57;;
37609;SDS011;23457;51.966;8.230;2023-04-24T21:18:12;14.18;;;5.65;;
37609;SDS011;23457;51.966;8.230;2023-04-24T21:20:38;16.52;;;5.05;;
37609;SDS011;23457;51.966;8.230;2023-04-24T21:23:05;12.93;;;6.18;;
37609;SDS011;23457;51.966;8.230;2023-04-24T21:25:32;13.40;;;5.30;;
37609;SDS011;23457;51.966;8.230;2023-04-24T21:28:00;19.67;;;5.68;;
37609;SDS011;23457;51.966;8.230;2023-04-24T21:30:27;14.35;;;5.45;;
37609;SDS011;23457;51.966;8.230;2023-04-24T21:32:55;18.60;;;5.68;;
37609;SDS011;23457;51.966;8.230;2023-04-24T21:35:22;13.23;;;5.13;;
37609;SDS011;23457;51.966;8.230;2023-04-24T21:37:49;14.32;;;5.22;;
37609;SDS011;23457;51.966;8.230;2023-04-24T21:40:15;16.90;;;5.55;;
37609;SDS011;23457;51.966;8.230;2023-04-24T21:42:46;19.88;;;5.90;;
37609;SDS011;23457;51.966;8.230;2023-04-24T21:45:13;15.93;;;5.88;;
37609;SDS011;23457;51.966;8.230;2023-04-24T21:47:40;20.63;;;5.90;;
37609;SDS011;23457;51.966;8.230;2023-04-24T21:50:07;18.40;;;7.15;;
37609;SDS011;23457;51.966;8.230;2023-04-24T21:52:34;20.60;;;6.32;;
37609;SDS011;23457;51.966;8.230;2023-04-24T21:55:03;15.40;;;6.78;;
37609;SDS011;23457;51.966;8.230;2023-04-24T21:57:30;17.98;;;6.32;;
37609;SDS011;23457;51.966;8.230;2023-04-24T21:59:56;15.30;;;6.30;;
37609;SDS011;23457;51.966;8.230;2023-04-24T22:02:23;22.67;;;6.40;;
37609;SDS011;23457;51.966;8.230;2023-04-24T22:04:50;18.45;;;6.45;;
37609;SDS011;23457;51.966;8.230;2023-04-24T22:07:18;19.40;;;6.75;;
37609;SDS011;23457;51.966;8.230;2023-04-24T22:09:44;15.93;;;5.70;;
37609;SDS011;23457;51.966;8.230;2023-04-24T22:12:11;16.75;;;6.75;;
37609;SDS011;23457;51.966;8.230;2023-04-24T22:14:38;20.80;;;7.03;;
37609;SDS011;23457;51.966;8.230;2023-04-24T22:17:04;22.88;;;6.43;;
37609;SDS011;23457;51.966;8.230;2023-04-24T22:19:31;24.30;;;6.47;;
37609;SDS011;23457;51.966;8.230;2023-04-24T22:21:57;19.65;;;6.57;;
37609;SDS011;23457;51.966;8.230;2023-04-24T22:24:24;18.45;;;6.43;;
37609;SDS011;23457;51.966;8.230;2023-04-24T22:26:50;25.15;;;7.25;;
37609;SDS011;23457;51.966;8.230;2023-04-24T22:29:17;15.98;;;6.25;;
37609;SDS011;23457;51.966;8.230;2023-04-24T22:31:44;24.48;;;6.72;;
37609;SDS011;23457;51.966;8.230;2023-04-24T22:34:10;18.73;;;6.43;;
37609;SDS011;23457;51.966;8.230;2023-04-24T22:36:37;24.67;;;6.93;;
37609;SDS011;23457;51.966;8.230;2023-04-24T22:39:04;16.80;;;6.85;;
37609;SDS011;23457;51.966;8.230;2023-04-24T22:41:30;16.70;;;6.10;;
37609;SDS011;23457;51.966;8.230;2023-04-24T22:43:57;20.85;;;7.25;;
37609;SDS011;23457;51.966;8.230;2023-04-24T22:46:24;19.23;;;6.28;;
37609;SDS011;23457;51.966;8.230;2023-04-24T22:48:50;23.25;;;6.35;;
37609;SDS011;23457;51.966;8.230;2023-04-24T22:51:17;21.70;;;7.22;;
37609;SDS011;23457;51.966;8.230;2023-04-24T22:53:44;19.20;;;6.10;;
37609;SDS011;23457;51.966;8.230;2023-04-24T22:56:11;23.15;;;6.95;;
37609;SDS011;23457;51.966;8.230;2023-04-24T22:58:37;25.75;;;7.22;;
37609;SDS011;23457;51.966;8.230;2023-04-24T23:01:04;21.77;;;6.75;;
37609;SDS011;23457;51.966;8.230;2023-04-24T23:03:31;26.70;;;6.55;;
37609;SDS011;23457;51.966;8.230;2023-04-24T23:05:58;24.35;;;6.55;;
37609;SDS011;23457;51.966;8.230;2023-04-24T23:08:25;15.80;;;5.80;;
37609;SDS011;23457;51.966;8.230;2023-04-24T23:10:52;20.55;;;7.25;;
37609;SDS011;23457;51.966;8.230;2023-04-24T23:13:18;20.33;;;6.53;;
37609;SDS011;23457;51.966;8.230;2023-04-24T23:15:45;20.60;;;6.68;;
37609;SDS011;23457;51.966;8.230;2023-04-24T23:18:11;24.58;;;6.45;;
37609;SDS011;23457;51.966;8.230;2023-04-24T23:20:38;21.65;;;7.63;;
37609;SDS011;23457;51.966;8.230;2023-04-24T23:23:05;22.33;;;5.97;;
37609;SDS011;23457;51.966;8.230;2023-04-24T23:25:31;23.20;;;6.30;;
37609;SDS011;23457;51.966;8.230;2023-04-24T23:27:58;20.05;;;6.38;;
37609;SDS011;23457;51.966;8.230;2023-04-24T23:30:25;18.75;;;6.00;;